Time;durP1;ratioP1;P1;durP2;ratioP2;P2;SDS_P1;SDS_P2;PMS_P1;PMS_P2;Temp;Humidity;BMP_temperature;BMP_pressure;BME280_temperature;BME280_humidity;BME280_pressure;Samples;Min_cycle;Max_cycle;Signal;HPM_P1;HPM_P2
2022/07/18 07:40:53;;;;;;;8.95;2.85;;;;;;;;;;5002015;28;20134;-75
2022/07/18 07:43:19;;;;;;;9.75;3.22;;;;;;;;;;5006463;28;20049;-75
2022/07/18 07:45:50;;;;;;;10.57;2.80;;;;;;;;;;5008300;28;20045;-75
2022/07/18 07:48:16;;;;;;;9.43;2.83;;;;;;;;;;5007643;28;20048;-75
2022/07/18 07:50:43;;;;;;;7.90;2.80;;;;;;;;;;5002368;28;20034;-75
2022/07/18 07:53:09;;;;;;;10.15;2.97;;;;;;;;;;5006509;28;20041;-75
2022/07/18 07:55:35;;;;;;;7.20;2.97;;;;;;;;;;5007953;28;20026;-75
2022/07/18 07:58:01;;;;;;;3.90;2.28;;;;;;;;;;5011607;28;20046;-75
2022/07/18 08:00:28;;;;;;;8.00;2.70;;;;;;;;;;5007954;28;20606;-75
2022/07/18 08:03:04;;;;;;;7.10;2.70;;;;;;;;;;5005799;28;20142;-75
2022/07/18 08:05:32;;;;;;;8.02;2.67;;;;;;;;;;5001814;28;20033;-75
2022/07/18 08:07:58;;;;;;;9.25;2.78;;;;;;;;;;5006904;28;20077;-75
2022/07/18 08:10:24;;;;;;;6.97;2.58;;;;;;;;;;5007747;28;20032;-75
2022/07/18 08:12:51;;;;;;;9.65;2.92;;;;;;;;;;5005205;28;20033;-75
2022/07/18 08:15:17;;;;;;;8.98;3.35;;;;;;;;;;5004784;28;20037;-75
2022/07/18 08:17:43;;;;;;;9.48;3.03;;;;;;;;;;5005694;28;20446;-75
2022/07/18 08:20:09;;;;;;;9.98;2.92;;;;;;;;;;5005137;28;20025;-75
2022/07/18 08:22:35;;;;;;;7.18;2.60;;;;;;;;;;5011078;28;20041;-75
2022/07/18 08:25:02;;;;;;;8.20;3.25;;;;;;;;;;5002260;28;20376;-75
2022/07/18 08:27:28;;;;;;;9.48;3.45;;;;;;;;;;5007612;28;20029;-75
2022/07/18 08:29:54;;;;;;;6.32;2.80;;;;;;;;;;5006915;28;20051;-75
2022/07/18 08:32:20;;;;;;;6.65;3.17;;;;;;;;;;5007481;28;20038;-75
2022/07/18 08:34:46;;;;;;;8.98;2.78;;;;;;;;;;5002977;28;20385;-75
2022/07/18 08:37:12;;;;;;;9.73;3.10;;;;;;;;;;4986285;28;20034;-75
2022/07/18 08:39:38;;;;;;;6.60;3.05;;;;;;;;;;5001555;28;20064;-75
2022/07/18 08:42:05;;;;;;;7.22;3.08;;;;;;;;;;5004817;28;20030;-75
2022/07/18 08:44:32;;;;;;;7.82;2.78;;;;;;;;;;5019642;28;20041;-75
2022/07/18 08:47:00;;;;;;;10.00;2.67;;;;;;;;;;5022666;28;20033;-75
2022/07/18 08:49:26;;;;;;;10.45;2.80;;;;;;;;;;5025721;28;20034;-75
2022/07/18 08:51:52;;;;;;;6.55;2.72;;;;;;;;;;5021847;28;20075;-75
2022/07/18 08:54:18;;;;;;;7.45;2.67;;;;;;;;;;5021652;28;20113;-75
2022/07/18 08:56:44;;;;;;;10.77;3.15;;;;;;;;;;5020615;28;20041;-75
2022/07/18 08:59:10;;;;;;;12.23;2.92;;;;;;;;;;5025209;28;20099;-75
2022/07/18 09:01:37;;;;;;;14.93;4.25;;;;;;;;;;5024327;28;20037;-75
2022/07/18 09:04:16;;;;;;;14.57;3.53;;;;;;;;;;5018584;28;20399;-75
2022/07/18 09:06:44;;;;;;;11.13;3.10;;;;;;;;;;5019468;28;20132;-75
2022/07/18 09:09:11;;;;;;;9.32;3.25;;;;;;;;;;5022600;28;20472;-75
2022/07/18 09:11:37;;;;;;;11.20;3.15;;;;;;;;;;5016038;28;20036;-75
2022/07/18 09:14:03;;;;;;;9.55;2.67;;;;;;;;;;5025204;28;20033;-75
2022/07/18 09:16:29;;;;;;;8.02;2.72;;;;;;;;;;5021997;28;20094;-75
2022/07/18 09:18:55;;;;;;;8.48;2.58;;;;;;;;;;5016630;28;20108;-75
2022/07/18 09:21:22;;;;;;;9.55;2.90;;;;;;;;;;5022030;28;20164;-75
2022/07/18 09:23:49;;;;;;;12.55;2.88;;;;;;;;;;5018177;28;20167;-75
2022/07/18 09:26:34;;;;;;;9.57;2.72;;;;;;;;;;5023773;28;20029;-75
2022/07/18 09:29:00;;;;;;;6.50;3.05;;;;;;;;;;5021151;28;20033;-75
2022/07/18 09:31:27;;;;;;;19.40;2.95;;;;;;;;;;5021045;28;20034;-75
2022/07/18 09:34:02;;;;;;;6.13;2.83;;;;;;;;;;5021096;28;20034;-75
2022/07/18 09:36:30;;;;;;;5.43;2.67;;;;;;;;;;5021217;28;20136;-75
2022/07/18 09:38:56;;;;;;;6.22;2.40;;;;;;;;;;5008063;28;21010;-75
2022/07/18 09:41:23;;;;;;;57.88;5.40;;;;;;;;;;5041479;28;20768;-75
2022/07/18 09:43:49;;;;;;;14.57;3.83;;;;;;;;;;5040066;28;20045;-75
2022/07/18 09:46:15;;;;;;;12.10;2.58;;;;;;;;;;5042951;28;20033;-75
2022/07/18 09:48:41;;;;;;;9.38;3.22;;;;;;;;;;5038930;28;20037;-75
2022/07/18 09:51:09;;;;;;;4.20;2.30;;;;;;;;;;5043526;28;20040;-75
2022/07/18 09:53:35;;;;;;;8.95;2.50;;;;;;;;;;5038859;28;20033;-75
2022/07/18 09:56:06;;;;;;;8.55;3.20;;;;;;;;;;5037143;28;20075;-75
2022/07/18 09:58:33;;;;;;;8.85;2.67;;;;;;;;;;5039172;28;20029;-75
2022/07/18 10:01:00;;;;;;;7.13;2.35;;;;;;;;;;5040583;28;20029;-76
2022/07/18 10:03:26;;;;;;;8.32;2.65;;;;;;;;;;5044231;28;20033;-75
2022/07/18 10:05:55;;;;;;;8.10;2.70;;;;;;;;;;5051251;28;20052;-75
2022/07/18 10:08:22;;;;;;;12.32;2.80;;;;;;;;;;5048316;28;20036;-75
2022/07/18 10:10:50;;;;;;;5.43;2.42;;;;;;;;;;5040663;28;20028;-75
2022/07/18 10:13:17;;;;;;;8.48;2.58;;;;;;;;;;5044386;28;20029;-75
2022/07/18 10:15:43;;;;;;;7.25;2.75;;;;;;;;;;5047974;28;20033;-75
2022/07/18 10:18:11;;;;;;;12.15;2.63;;;;;;;;;;5042703;28;20037;-75
2022/07/18 10:20:39;;;;;;;6.47;2.65;;;;;;;;;;5041373;28;20052;-75
2022/07/18 10:23:28;;;;;;;6.82;2.65;;;;;;;;;;5043759;28;20037;-75
2022/07/18 10:26:08;;;;;;;8.00;2.63;;;;;;;;;;5034733;28;20056;-75
2022/07/18 10:28:34;;;;;;;12.02;2.95;;;;;;;;;;5036193;28;20037;-75
2022/07/18 10:31:14;;;;;;;5.00;2.30;;;;;;;;;;5048148;28;20498;-75
2022/07/18 10:33:43;;;;;;;5.90;2.67;;;;;;;;;;5043091;28;20040;-75
2022/07/18 10:36:14;;;;;;;6.20;2.25;;;;;;;;;;5039543;28;20031;-75
2022/07/18 10:39:00;;;;;;;8.50;2.40;;;;;;;;;;5044270;28;20082;-75
2022/07/18 10:41:26;;;;;;;5.32;2.47;;;;;;;;;;5047737;28;20058;-75
2022/07/18 10:43:52;;;;;;;8.32;2.30;;;;;;;;;;5047674;28;20535;-75
2022/07/18 10:46:18;;;;;;;4.00;2.28;;;;;;;;;;5042538;28;20037;-75
2022/07/18 10:48:45;;;;;;;6.80;2.47;;;;;;;;;;5041879;28;20079;-75
2022/07/18 10:51:12;;;;;;;5.28;2.63;;;;;;;;;;5050053;28;20021;-75
2022/07/18 10:53:57;;;;;;;5.75;2.33;;;;;;;;;;5044849;28;20091;-75
2022/07/18 10:56:29;;;;;;;7.28;2.30;;;;;;;;;;5042052;28;20098;-75
2022/07/18 10:58:58;;;;;;;6.45;2.58;;;;;;;;;;5044585;28;20083;-75
2022/07/18 11:01:26;;;;;;;4.53;2.22;;;;;;;;;;5027340;28;20119;-75
2022/07/18 11:04:11;;;;;;;6.15;2.22;;;;;;;;;;5042419;28;20037;-75
2022/07/18 11:06:55;;;;;;;7.22;2.13;;;;;;;;;;5046750;28;20456;-75
2022/07/18 11:09:37;;;;;;;8.27;2.70;;;;;;;;;;5043493;28;20507;-75
2022/07/18 11:12:22;;;;;;;10.50;2.72;;;;;;;;;;5046329;28;20028;-75
2022/07/18 11:15:08;;;;;;;7.95;2.28;;;;;;;;;;5043456;28;20202;-75
2022/07/18 11:17:52;;;;;;;6.55;2.30;;;;;;;;;;5038555;28;20068;-75
2022/07/18 11:20:24;;;;;;;8.35;3.03;;;;;;;;;;5043888;28;20149;-75
2022/07/18 11:22:51;;;;;;;7.53;2.65;;;;;;;;;;5048847;28;20385;-75
2022/07/18 11:25:18;;;;;;;3.95;2.35;;;;;;;;;;5049389;28;20151;-75
2022/07/18 11:27:44;;;;;;;6.65;2.15;;;;;;;;;;5045496;28;20042;-75
2022/07/18 11:30:10;;;;;;;6.47;2.38;;;;;;;;;;5041701;28;20104;-76
2022/07/18 11:32:37;;;;;;;6.22;2.05;;;;;;;;;;5042761;28;20037;-75
2022/07/18 11:35:05;;;;;;;7.35;2.25;;;;;;;;;;5036712;28;20434;-75
2022/07/18 11:37:32;;;;;;;6.97;2.80;;;;;;;;;;5039192;28;20042;-75
2022/07/18 11:40:05;;;;;;;7.05;2.67;;;;;;;;;;5043861;28;20049;-75
2022/07/18 11:42:40;;;;;;;8.40;2.22;;;;;;;;;;5041844;28;20522;-75
2022/07/18 11:45:07;;;;;;;7.20;2.65;;;;;;;;;;5039406;28;20033;-76
2022/07/18 11:47:52;;;;;;;10.70;2.45;;;;;;;;;;5042033;28;20495;-75
2022/07/18 11:50:19;;;;;;;5.82;1.85;;;;;;;;;;5044597;28;20056;-76
2022/07/18 11:52:45;;;;;;;8.85;2.50;;;;;;;;;;5042001;28;20032;-75
2022/07/18 11:55:12;;;;;;;12.70;2.45;;;;;;;;;;5045012;28;20052;-76
2022/07/18 11:57:38;;;;;;;8.32;2.53;;;;;;;;;;5045625;28;20110;-75
2022/07/18 12:00:14;;;;;;;11.00;3.05;;;;;;;;;;5039507;28;20082;-75
2022/07/18 12:02:59;;;;;;;7.82;2.45;;;;;;;;;;5043559;28;20047;-75
2022/07/18 12:05:32;;;;;;;5.90;2.42;;;;;;;;;;5038470;28;20044;-76
2022/07/18 12:07:58;;;;;;;12.18;2.95;;;;;;;;;;5040155;28;20365;-76
2022/07/18 12:10:24;;;;;;;6.35;2.63;;;;;;;;;;5040463;28;20083;-76
2022/07/18 12:12:50;;;;;;;6.93;2.50;;;;;;;;;;5042324;28;20079;-75
2022/07/18 12:15:16;;;;;;;11.13;2.55;;;;;;;;;;5050192;28;20036;-75
2022/07/18 12:17:44;;;;;;;5.72;2.47;;;;;;;;;;5045482;28;20069;-75
2022/07/18 12:20:11;;;;;;;11.30;2.75;;;;;;;;;;5047336;28;20093;-75
2022/07/18 12:22:58;;;;;;;7.22;2.50;;;;;;;;;;5046963;28;20035;-76
2022/07/18 12:25:34;;;;;;;6.72;2.05;;;;;;;;;;5044418;28;20094;-75
2022/07/18 12:28:12;;;;;;;12.73;2.40;;;;;;;;;;5040846;28;20067;-76
2022/07/18 12:30:38;;;;;;;6.82;2.53;;;;;;;;;;5042929;28;20033;-75
2022/07/18 12:33:09;;;;;;;10.20;2.65;;;;;;;;;;5039844;28;20029;-75
2022/07/18 12:35:35;;;;;;;8.82;2.17;;;;;;;;;;5044178;28;20039;-75
2022/07/18 12:38:05;;;;;;;8.57;2.30;;;;;;;;;;5038915;28;20102;-76
2022/07/18 12:40:45;;;;;;;7.30;2.40;;;;;;;;;;5046212;28;20068;-75
2022/07/18 12:43:12;;;;;;;7.57;2.38;;;;;;;;;;5043405;28;20035;-76
2022/07/18 12:45:39;;;;;;;7.05;2.90;;;;;;;;;;5045799;28;20120;-75
2022/07/18 12:48:06;;;;;;;7.72;2.63;;;;;;;;;;5040195;28;20454;-75
2022/07/18 12:50:32;;;;;;;7.13;2.15;;;;;;;;;;5041918;28;20036;-76
2022/07/18 12:52:58;;;;;;;6.28;2.30;;;;;;;;;;5045000;28;20040;-75
2022/07/18 12:55:26;;;;;;;7.45;2.72;;;;;;;;;;5044974;28;20036;-75
2022/07/18 12:57:52;;;;;;;10.63;2.85;;;;;;;;;;5041876;28;20041;-76
2022/07/18 13:00:19;;;;;;;6.78;2.40;;;;;;;;;;5039933;28;20681;-76
2022/07/18 13:02:46;;;;;;;13.10;2.60;;;;;;;;;;5040595;28;20067;-76
2022/07/18 13:05:12;;;;;;;6.53;2.15;;;;;;;;;;5041660;28;20037;-75
2022/07/18 13:07:38;;;;;;;10.35;3.22;;;;;;;;;;5045880;28;20048;-75
2022/07/18 13:10:04;;;;;;;9.80;2.60;;;;;;;;;;5047976;28;20032;-76
2022/07/18 13:12:31;;;;;;;11.02;2.45;;;;;;;;;;5040827;28;20028;-76
2022/07/18 13:14:57;;;;;;;9.40;3.00;;;;;;;;;;5037907;28;20498;-76
2022/07/18 13:17:23;;;;;;;6.60;2.20;;;;;;;;;;5043794;28;20037;-76
2022/07/18 13:19:49;;;;;;;7.25;2.00;;;;;;;;;;5039364;28;20037;-76
2022/07/18 13:22:16;;;;;;;9.30;2.40;;;;;;;;;;5043205;28;20026;-76
2022/07/18 13:24:42;;;;;;;6.53;2.08;;;;;;;;;;5046201;28;20039;-75
2022/07/18 13:27:08;;;;;;;9.15;2.33;;;;;;;;;;5045513;28;20535;-75
2022/07/18 13:29:34;;;;;;;6.15;2.42;;;;;;;;;;5039819;28;20041;-76
2022/07/18 13:32:02;;;;;;;8.63;2.22;;;;;;;;;;5040496;28;20619;-75
2022/07/18 13:34:29;;;;;;;7.88;2.38;;;;;;;;;;5048682;28;20451;-75
2022/07/18 13:36:55;;;;;;;9.00;2.03;;;;;;;;;;5042465;28;20033;-76
2022/07/18 13:39:22;;;;;;;8.50;2.17;;;;;;;;;;5038825;28;20087;-75
2022/07/18 13:41:48;;;;;;;11.43;2.13;;;;;;;;;;5041765;28;20506;-75
2022/07/18 13:44:14;;;;;;;8.13;2.10;;;;;;;;;;5039948;28;20082;-76
2022/07/18 13:46:40;;;;;;;8.95;2.20;;;;;;;;;;5041140;28;20033;-75
2022/07/18 13:49:07;;;;;;;8.70;2.28;;;;;;;;;;5019638;28;20040;-75
2022/07/18 13:51:34;;;;;;;6.55;2.85;;;;;;;;;;5035523;28;20029;-75
2022/07/18 13:54:00;;;;;;;16.08;4.00;;;;;;;;;;5036293;28;20029;-76
2022/07/18 13:56:26;;;;;;;10.60;3.80;;;;;;;;;;5040434;28;20044;-76
2022/07/18 13:58:52;;;;;;;14.45;3.85;;;;;;;;;;5039881;28;20037;-75
2022/07/18 14:01:18;;;;;;;10.30;3.88;;;;;;;;;;5039535;28;20052;-77
2022/07/18 14:03:44;;;;;;;7.53;4.22;;;;;;;;;;5041974;28;20112;-75
2022/07/18 14:06:10;;;;;;;9.00;4.10;;;;;;;;;;5043023;28;20025;-75
2022/07/18 14:08:37;;;;;;;11.10;3.50;;;;;;;;;;5042161;28;20056;-76
2022/07/18 14:11:03;;;;;;;11.30;2.90;;;;;;;;;;5040298;28;20087;-76
2022/07/18 14:13:29;;;;;;;6.20;2.67;;;;;;;;;;5040363;28;20029;-76
2022/07/18 14:15:55;;;;;;;8.65;2.92;;;;;;;;;;5046192;28;20437;-76
2022/07/18 14:18:21;;;;;;;9.73;3.10;;;;;;;;;;5044066;28;20943;-75
2022/07/18 14:20:47;;;;;;;10.63;3.08;;;;;;;;;;5041793;28;20785;-76
2022/07/18 14:23:13;;;;;;;10.27;2.72;;;;;;;;;;5041168;28;20041;-75
2022/07/18 14:25:39;;;;;;;8.77;2.47;;;;;;;;;;5045991;28;20040;-76
2022/07/18 14:28:05;;;;;;;8.38;2.53;;;;;;;;;;5039253;28;20029;-76
2022/07/18 14:30:32;;;;;;;8.32;2.30;;;;;;;;;;5039784;28;20035;-76
2022/07/18 14:32:58;;;;;;;9.13;2.80;;;;;;;;;;5040626;28;20069;-76
2022/07/18 14:35:24;;;;;;;10.23;2.80;;;;;;;;;;5038921;28;20032;-75
2022/07/18 14:37:50;;;;;;;13.13;3.58;;;;;;;;;;5041043;28;20033;-75
2022/07/18 14:40:16;;;;;;;8.57;2.35;;;;;;;;;;5036218;28;20052;-75
2022/07/18 14:42:42;;;;;;;10.55;2.50;;;;;;;;;;5038337;28;20080;-76
2022/07/18 14:45:09;;;;;;;10.35;3.17;;;;;;;;;;5041556;28;20033;-76
2022/07/18 14:47:36;;;;;;;6.85;2.83;;;;;;;;;;5041885;28;20040;-76
2022/07/18 14:50:03;;;;;;;6.82;2.30;;;;;;;;;;5041969;28;20033;-76
2022/07/18 14:52:29;;;;;;;11.63;3.28;;;;;;;;;;5049361;28;20138;-75
2022/07/18 14:54:55;;;;;;;6.78;2.42;;;;;;;;;;5038800;28;20857;-75
2022/07/18 14:57:21;;;;;;;8.85;2.60;;;;;;;;;;5046516;28;20037;-76
2022/07/18 14:59:47;;;;;;;11.77;2.63;;;;;;;;;;5043188;28;20061;-76
2022/07/18 15:02:14;;;;;;;14.90;3.03;;;;;;;;;;5049357;28;20122;-76
2022/07/18 15:04:40;;;;;;;11.05;2.90;;;;;;;;;;5045563;28;20025;-76
2022/07/18 15:07:07;;;;;;;9.50;2.25;;;;;;;;;;5041548;28;20040;-76
2022/07/18 15:09:33;;;;;;;11.07;2.45;;;;;;;;;;5024408;28;20080;-75
2022/07/18 15:11:59;;;;;;;9.05;1.83;;;;;;;;;;5043397;28;20171;-76
2022/07/18 15:14:27;;;;;;;8.10;3.55;;;;;;;;;;5041200;28;20045;-76
2022/07/18 15:16:53;;;;;;;6.63;2.45;;;;;;;;;;5054133;28;20028;-76
2022/07/18 15:19:19;;;;;;;11.35;2.35;;;;;;;;;;5046215;28;20045;-76
2022/07/18 15:21:45;;;;;;;8.63;2.33;;;;;;;;;;5051480;28;20036;-76
2022/07/18 15:24:11;;;;;;;6.25;2.42;;;;;;;;;;5044849;28;20036;-75
2022/07/18 15:26:37;;;;;;;12.00;2.75;;;;;;;;;;5046520;28;20112;-76
2022/07/18 15:29:03;;;;;;;8.18;2.17;;;;;;;;;;5048050;28;20036;-75
2022/07/18 15:31:30;;;;;;;4.57;1.83;;;;;;;;;;5042775;28;20036;-76
2022/07/18 15:33:56;;;;;;;6.60;2.20;;;;;;;;;;5042137;28;20033;-76
2022/07/18 15:36:22;;;;;;;8.02;2.75;;;;;;;;;;5041777;28;20567;-75
2022/07/18 15:38:48;;;;;;;13.18;2.60;;;;;;;;;;5037651;28;20472;-75
2022/07/18 15:41:19;;;;;;;6.20;2.08;;;;;;;;;;5021972;28;20033;-76
2022/07/18 15:43:45;;;;;;;;;;;;;;;;;;5039934;28;20029;-76
2022/07/18 15:46:16;;;;;;;12.98;2.80;;;;;;;;;;5049369;28;20016;-76
2022/07/18 15:48:42;;;;;;;8.48;2.60;;;;;;;;;;5045126;28;20079;-75
2022/07/18 15:51:08;;;;;;;10.95;2.63;;;;;;;;;;5044898;28;20510;-75
2022/07/18 15:53:34;;;;;;;11.70;2.35;;;;;;;;;;5029082;28;20041;-75
2022/07/18 15:56:00;;;;;;;7.10;2.40;;;;;;;;;;5039478;28;20017;-76
2022/07/18 15:58:26;;;;;;;9.10;2.30;;;;;;;;;;5046121;28;20388;-76
2022/07/18 16:00:52;;;;;;;10.77;2.90;;;;;;;;;;5019712;28;20033;-76
2022/07/18 16:03:18;;;;;;;7.95;2.28;;;;;;;;;;5038848;28;20145;-76
2022/07/18 16:05:44;;;;;;;10.63;2.70;;;;;;;;;;5036353;28;20034;-76
2022/07/18 16:08:11;;;;;;;6.25;2.53;;;;;;;;;;5041096;28;20032;-75
2022/07/18 16:10:37;;;;;;;11.00;2.55;;;;;;;;;;5026959;28;20025;-75
2022/07/18 16:13:03;;;;;;;14.70;3.17;;;;;;;;;;5044929;28;20068;-75
2022/07/18 16:15:29;;;;;;;7.57;2.13;;;;;;;;;;5039099;28;20032;-75
2022/07/18 16:17:55;;;;;;;7.75;2.53;;;;;;;;;;5040341;28;20037;-75
2022/07/18 16:20:21;;;;;;;7.10;2.78;;;;;;;;;;5039607;28;20063;-76
2022/07/18 16:22:48;;;;;;;8.52;2.60;;;;;;;;;;5043525;28;20626;-75
2022/07/18 16:25:14;;;;;;;10.20;3.28;;;;;;;;;;5047339;28;20028;-76
2022/07/18 16:27:40;;;;;;;8.90;2.90;;;;;;;;;;5028287;28;20448;-76
2022/07/18 16:30:06;;;;;;;9.43;2.40;;;;;;;;;;5030336;28;20431;-75
2022/07/18 16:32:32;;;;;;;12.27;2.88;;;;;;;;;;5036049;28;20037;-75
2022/07/18 16:34:58;;;;;;;12.60;2.58;;;;;;;;;;5046108;28;20782;-75
2022/07/18 16:37:24;;;;;;;9.65;2.72;;;;;;;;;;5039018;28;20029;-76
2022/07/18 16:39:51;;;;;;;7.28;2.60;;;;;;;;;;5040686;28;20049;-76
2022/07/18 16:42:17;;;;;;;12.07;2.55;;;;;;;;;;5043868;28;20036;-75
2022/07/18 16:44:43;;;;;;;7.93;2.60;;;;;;;;;;5039790;28;20037;-75
2022/07/18 16:47:09;;;;;;;10.68;2.47;;;;;;;;;;5040895;28;20032;-75
2022/07/18 16:49:36;;;;;;;12.27;2.80;;;;;;;;;;5037958;28;20040;-75
2022/07/18 16:52:03;;;;;;;10.60;3.03;;;;;;;;;;5039673;28;20025;-75
2022/07/18 16:54:29;;;;;;;8.55;2.72;;;;;;;;;;5040967;28;20033;-76
2022/07/18 16:56:55;;;;;;;6.57;2.30;;;;;;;;;;5038644;28;20037;-75
2022/07/18 16:59:21;;;;;;;10.13;2.90;;;;;;;;;;5052574;28;20550;-75
2022/07/18 17:01:48;;;;;;;11.38;2.90;;;;;;;;;;5047350;28;20048;-75
2022/07/18 17:04:14;;;;;;;6.25;2.20;;;;;;;;;;5026062;28;20033;-76
2022/07/18 17:06:40;;;;;;;10.68;2.72;;;;;;;;;;5045038;28;20037;-75
2022/07/18 17:09:07;;;;;;;13.48;2.70;;;;;;;;;;5024816;28;20510;-75
